Time;durP1;ratioP1;P1;durP2;ratioP2;P2;SDS_P1;SDS_P2;PMS_P1;PMS_P2;Temp;Humidity;BMP_temperature;BMP_pressure;BME280_temperature;BME280_humidity;BME280_pressure;Samples;Min_cycle;Max_cycle;Signal;HPM_P1;HPM_P2
2023/05/11 00:00:37;;;;;;;10.52;5.93;;;;;;;13.58;100.00;100768.19;5012988;28;20057;-70
2023/05/11 00:03:05;;;;;;;12.13;5.95;;;;;;;13.53;100.00;100762.50;4999671;28;20139;-69
2023/05/11 00:05:31;;;;;;;12.77;5.80;;;;;;;13.43;100.00;100767.28;4993136;28;20141;-70
2023/05/11 00:07:58;;;;;;;12.25;6.47;;;;;;;13.46;100.00;100767.75;4993146;28;20054;-69
2023/05/11 00:10:24;;;;;;;9.98;6.80;;;;;;;13.51;100.00;100761.81;4993816;28;20051;-69
2023/05/11 00:12:51;;;;;;;7.90;5.80;;;;;;;13.47;100.00;100764.03;4994318;28;20105;-69
2023/05/11 00:15:17;;;;;;;8.45;6.28;;;;;;;13.35;100.00;100768.13;4993254;28;20391;-69
2023/05/11 00:17:44;;;;;;;8.57;6.22;;;;;;;13.32;100.00;100763.97;4993313;28;20065;-69
2023/05/11 00:20:11;;;;;;;15.68;6.13;;;;;;;13.34;100.00;100770.00;4992801;28;20486;-69
2023/05/11 00:22:38;;;;;;;9.18;6.07;;;;;;;13.30;100.00;100766.00;4993261;28;20140;-70
2023/05/11 00:25:05;;;;;;;12.10;6.78;;;;;;;13.20;100.00;100754.59;4992746;28;20074;-70
2023/05/11 00:27:31;;;;;;;11.05;6.75;;;;;;;13.17;100.00;100759.50;4991986;28;20046;-70
2023/05/11 00:29:58;;;;;;;9.68;6.93;;;;;;;13.16;100.00;100764.06;4993156;28;20101;-70
2023/05/11 00:32:24;;;;;;;8.05;6.30;;;;;;;13.16;100.00;100763.22;4993105;28;20414;-70
2023/05/11 00:34:51;;;;;;;6.78;5.68;;;;;;;13.10;100.00;100759.34;4974249;28;20070;-69
2023/05/11 00:37:17;;;;;;;11.32;6.13;;;;;;;13.16;100.00;100753.28;4973721;28;20384;-70
2023/05/11 00:39:44;;;;;;;9.25;6.28;;;;;;;13.07;100.00;100765.94;4974567;28;20404;-70
2023/05/11 00:42:10;;;;;;;11.90;5.50;;;;;;;12.99;100.00;100759.75;4974200;28;20070;-70
2023/05/11 00:44:37;;;;;;;8.23;6.10;;;;;;;12.94;100.00;100748.66;4965551;28;20106;-70
2023/05/11 00:47:03;;;;;;;10.07;5.70;;;;;;;12.85;100.00;100758.63;4973862;28;20049;-71
2023/05/11 00:49:30;;;;;;;12.20;6.18;;;;;;;12.83;100.00;100758.81;4974297;28;20046;-69
2023/05/11 00:51:57;;;;;;;10.30;6.18;;;;;;;12.79;100.00;100757.47;4986641;28;20120;-63
2023/05/11 00:54:24;;;;;;;10.32;6.75;;;;;;;12.86;100.00;100758.44;4995348;28;20517;-65
2023/05/11 00:56:50;;;;;;;9.02;5.90;;;;;;;12.84;100.00;100765.88;4995075;28;20088;-65
2023/05/11 00:59:17;;;;;;;7.90;5.97;;;;;;;12.76;100.00;100762.34;4995389;28;20048;-65
2023/05/11 01:01:44;;;;;;;9.52;5.90;;;;;;;12.67;100.00;100760.69;4995239;28;20072;-65
2023/05/11 01:04:11;;;;;;;8.68;5.72;;;;;;;12.59;100.00;100758.84;4995602;28;20065;-65
2023/05/11 01:07:26;;;;;;;8.75;6.10;;;;;;;12.51;100.00;100754.31;4996906;28;20049;-64
2023/05/11 01:10:04;;;;;;;7.63;6.30;;;;;;;12.60;100.00;100763.22;4997553;28;20053;-65
2023/05/11 01:12:42;;;;;;;8.88;6.60;;;;;;;12.57;100.00;100755.50;4996053;28;20495;-65
2023/05/11 01:15:20;;;;;;;9.05;5.65;;;;;;;12.46;100.00;100758.56;4977964;28;20053;-65
2023/05/11 01:18:20;;;;;;;12.18;6.57;;;;;;;12.50;100.00;100754.50;4995053;28;20125;-65
2023/05/11 01:20:52;;;;;;;7.40;6.38;;;;;;;12.46;100.00;100764.78;4994444;28;20392;-67
2023/05/11 01:23:38;;;;;;;8.63;6.88;;;;;;;12.35;100.00;100759.75;4994249;28;20057;-66
2023/05/11 01:26:05;;;;;;;9.52;6.50;;;;;;;12.27;100.00;100762.44;4981551;28;20039;-65
2023/05/11 01:28:43;;;;;;;8.30;6.55;;;;;;;12.27;100.00;100768.66;4994572;28;20494;-65
2023/05/11 01:31:11;;;;;;;7.95;6.20;;;;;;;12.29;100.00;100765.81;4994573;28;20065;-65
2023/05/11 01:33:48;;;;;;;9.18;6.88;;;;;;;12.30;100.00;100762.13;4994731;28;20049;-64
2023/05/11 01:36:18;;;;;;;9.30;6.43;;;;;;;12.25;100.00;100765.31;4985691;28;20077;-64
2023/05/11 01:38:47;;;;;;;10.82;7.10;;;;;;;12.27;100.00;100771.34;4992201;28;20163;-63
2023/05/11 01:41:17;;;;;;;10.23;7.05;;;;;;;12.32;100.00;100770.88;4993948;28;20046;-63
2023/05/11 01:43:51;;;;;;;10.77;7.80;;;;;;;12.32;100.00;100779.78;4992678;28;20050;-64
2023/05/11 01:46:23;;;;;;;18.83;7.82;;;;;;;12.14;100.00;100771.91;4994045;28;20119;-66
2023/05/11 01:48:53;;;;;;;18.55;11.07;;;;;;;12.01;100.00;100773.41;4993542;28;20050;-63
2023/05/11 01:51:20;;;;;;;18.50;11.60;;;;;;;11.85;100.00;100779.63;4993887;28;20054;-64
2023/05/11 01:53:47;;;;;;;18.00;13.73;;;;;;;11.60;100.00;100770.66;4994269;28;20145;-66
2023/05/11 01:56:16;;;;;;;19.13;14.93;;;;;;;11.58;100.00;100783.41;4973712;28;20050;-69
2023/05/11 01:58:44;;;;;;;24.73;14.55;;;;;;;11.60;100.00;100784.09;4992534;28;20129;-70
2023/05/11 02:01:13;;;;;;;24.13;15.13;;;;;;;11.59;100.00;100780.56;4989717;28;20050;-70
2023/05/11 02:03:41;;;;;;;27.77;15.93;;;;;;;11.66;100.00;100788.84;5006112;28;20046;-65
2023/05/11 02:06:10;;;;;;;22.52;14.82;;;;;;;11.65;100.00;100789.78;4993702;28;20050;-65
2023/05/11 02:08:38;;;;;;;28.88;14.98;;;;;;;11.46;100.00;100790.94;4989717;28;20104;-63
2023/05/11 02:11:06;;;;;;;21.85;14.32;;;;;;;11.38;100.00;100789.09;4994013;28;20102;-65
2023/05/11 02:13:35;;;;;;;21.55;14.95;;;;;;;11.50;100.00;100786.09;4993932;28;20137;-63
2023/05/11 02:16:31;;;;;;;29.08;15.20;;;;;;;11.52;100.00;100778.69;4995153;28;20161;-64
2023/05/11 02:19:01;;;;;;;23.67;14.10;;;;;;;11.53;100.00;100794.66;4962524;28;20043;-69
2023/05/11 02:21:31;;;;;;;19.50;14.20;;;;;;;11.59;100.00;100791.31;4972027;28;20133;-69
2023/05/11 02:24:00;;;;;;;24.02;14.82;;;;;;;11.37;100.00;100790.06;4965800;28;20053;-68
2023/05/11 02:26:27;;;;;;;19.10;13.48;;;;;;;11.59;100.00;100790.47;4971064;28;20087;-69
2023/05/11 02:28:54;;;;;;;22.60;14.23;;;;;;;11.47;100.00;100795.31;4970929;28;20053;-68
2023/05/11 02:31:28;;;;;;;19.70;13.50;;;;;;;11.37;100.00;100795.44;4970862;28;20046;-68
2023/05/11 02:34:05;;;;;;;23.08;13.02;;;;;;;11.39;100.00;100798.00;4970127;28;20141;-69
2023/05/11 02:36:34;;;;;;;19.33;12.73;;;;;;;11.30;100.00;100796.28;4970685;28;20050;-70
2023/05/11 02:39:05;;;;;;;17.90;12.98;;;;;;;11.25;100.00;100795.94;4971251;28;20053;-70
2023/05/11 02:41:36;;;;;;;16.83;12.32;;;;;;;11.38;100.00;100799.84;4963840;28;20089;-69
2023/05/11 02:44:06;;;;;;;18.90;12.63;;;;;;;11.25;100.00;100804.81;4971207;28;20085;-70
2023/05/11 02:46:35;;;;;;;23.17;12.18;;;;;;;11.43;100.00;100799.34;4970879;28;20294;-68
2023/05/11 02:49:06;;;;;;;19.90;12.05;;;;;;;11.41;100.00;100806.69;4970187;28;20470;-68
2023/05/11 02:51:38;;;;;;;15.80;12.63;;;;;;;11.36;100.00;100798.31;4971410;28;20061;-68
2023/05/11 02:54:09;;;;;;;17.15;12.52;;;;;;;11.38;100.00;100805.22;4970402;28;20055;-69
2023/05/11 03:00:05;;;;;;;18.08;11.18;;;;;;;11.37;100.00;100800.81;4989961;28;19929;-69
2023/05/11 03:02:32;;;;;;;14.57;11.07;;;;;;;11.29;100.00;100800.81;4980546;28;20411;-69
2023/05/11 03:04:58;;;;;;;13.73;9.90;;;;;;;11.18;100.00;100803.78;4989377;28;20044;-68
2023/05/11 03:07:25;;;;;;;14.38;9.95;;;;;;;11.44;100.00;100806.38;4988735;28;20050;-69
2023/05/11 03:09:52;;;;;;;15.57;9.95;;;;;;;11.22;100.00;100805.97;4989532;28;20446;-71
2023/05/11 03:12:20;;;;;;;14.00;9.93;;;;;;;11.32;100.00;100805.00;4989435;28;20473;-70
2023/05/11 03:14:47;;;;;;;13.00;9.52;;;;;;;11.21;100.00;100815.06;4981848;28;20081;-69
2023/05/11 03:17:14;;;;;;;17.33;9.30;;;;;;;11.26;100.00;100813.72;4972744;28;20415;-70
2023/05/11 03:19:42;;;;;;;18.45;10.00;;;;;;;11.04;100.00;100818.66;4971471;28;20047;-70
2023/05/11 03:22:09;;;;;;;12.05;9.00;;;;;;;11.22;100.00;100815.88;4970551;28;20064;-70
2023/05/11 03:24:37;;;;;;;14.40;9.02;;;;;;;11.05;100.00;100816.81;4971355;28;20046;-70
2023/05/11 03:27:06;;;;;;;10.70;8.75;;;;;;;11.07;100.00;100815.66;4964592;28;20153;-70
2023/05/11 03:29:37;;;;;;;17.35;9.13;;;;;;;10.92;100.00;100818.09;4971008;28;20039;-71
2023/05/11 03:32:04;;;;;;;14.43;8.50;;;;;;;10.86;100.00;100808.03;4969929;28;20070;-70
2023/05/11 03:34:31;;;;;;;13.82;8.93;;;;;;;10.87;100.00;100801.66;4970519;28;20054;-70
2023/05/11 03:36:59;;;;;;;11.98;8.73;;;;;;;10.93;100.00;100817.13;4960811;28;20047;-70
2023/05/11 03:39:30;;;;;;;11.48;7.53;;;;;;;10.89;100.00;100813.03;4983342;28;20046;-69
2023/05/11 03:41:58;;;;;;;12.13;7.47;;;;;;;11.02;100.00;100812.59;4988725;28;20586;-70
2023/05/11 03:44:25;;;;;;;13.73;8.55;;;;;;;11.14;100.00;100814.03;4989292;28;20133;-70
2023/05/11 03:46:54;;;;;;;13.05;7.63;;;;;;;11.20;100.00;100815.19;4988649;28;20042;-70
2023/05/11 03:49:21;;;;;;;11.93;7.75;;;;;;;11.14;100.00;100814.03;4989826;28;20051;-71
2023/05/11 03:51:48;;;;;;;14.13;7.78;;;;;;;11.02;100.00;100815.28;4990506;28;20047;-70
2023/05/11 03:54:14;;;;;;;13.35;7.75;;;;;;;11.01;100.00;100819.00;4991517;28;20077;-69
2023/05/11 03:56:41;;;;;;;11.52;7.65;;;;;;;10.66;100.00;100811.94;4990874;28;20134;-69
2023/05/11 03:59:13;;;;;;;13.32;7.35;;;;;;;10.82;100.00;100808.47;4990862;28;20125;-71
2023/05/11 04:01:41;;;;;;;13.20;7.78;;;;;;;10.83;100.00;100805.66;4992210;28;20054;-69
2023/05/11 04:04:08;;;;;;;11.07;6.90;;;;;;;10.90;100.00;100805.84;4995986;28;20475;-71
2023/05/11 04:06:34;;;;;;;10.38;7.88;;;;;;;10.77;100.00;100810.81;4995146;28;20064;-70
2023/05/11 04:09:01;;;;;;;12.93;6.90;;;;;;;10.65;100.00;100811.09;4991385;28;20046;-69
2023/05/11 04:11:29;;;;;;;9.23;7.20;;;;;;;10.81;100.00;100815.69;4996007;28;20054;-69
2023/05/11 04:13:55;;;;;;;13.63;7.28;;;;;;;10.79;100.00;100809.66;4978014;28;20078;-68
2023/05/11 04:16:22;;;;;;;14.38;7.82;;;;;;;10.85;100.00;100825.09;4975322;28;20069;-68
2023/05/11 04:18:48;;;;;;;13.23;7.05;;;;;;;10.95;100.00;100816.94;4976201;28;20462;-70
2023/05/11 04:21:15;;;;;;;17.60;7.25;;;;;;;10.99;100.00;100816.44;4975857;28;20118;-69
2023/05/11 04:23:42;;;;;;;10.43;7.00;;;;;;;10.95;100.00;100825.81;4974437;28;20042;-68
2023/05/11 04:26:08;;;;;;;12.43;6.68;;;;;;;10.82;100.00;100824.59;4974766;28;20050;-68
2023/05/11 04:28:35;;;;;;;16.75;7.13;;;;;;;10.95;100.00;100823.16;4973949;28;20082;-68
2023/05/11 04:31:01;;;;;;;12.57;6.50;;;;;;;11.03;100.00;100832.25;4956638;28;20047;-68
2023/05/11 04:33:28;;;;;;;10.02;6.43;;;;;;;11.01;100.00;100831.56;4972966;28;20054;-68
2023/05/11 04:35:55;;;;;;;10.35;5.57;;;;;;;11.14;100.00;100830.13;4975442;28;20105;-68
2023/05/11 04:38:21;;;;;;;9.68;6.35;;;;;;;11.16;100.00;100830.78;4973763;28;20415;-69
2023/05/11 04:40:49;;;;;;;14.90;6.93;;;;;;;11.09;100.00;100828.91;4953185;28;20129;-68
2023/05/11 04:43:17;;;;;;;19.70;6.43;;;;;;;11.20;100.00;100832.16;4973657;28;20051;-68
2023/05/11 04:45:50;;;;;;;10.57;6.70;;;;;;;11.31;100.00;100848.97;4973878;28;20485;-68
2023/05/11 04:48:17;;;;;;;13.23;7.43;;;;;;;11.27;100.00;100835.03;4974656;28;20070;-69
2023/05/11 04:50:46;;;;;;;11.85;6.72;;;;;;;11.20;100.00;100844.72;4974593;28;20047;-68
2023/05/11 04:53:13;;;;;;;8.82;6.03;;;;;;;11.10;100.00;100846.69;4957228;28;20069;-68
2023/05/11 04:55:39;;;;;;;11.80;6.38;;;;;;;11.20;100.00;100848.25;4966913;28;20439;-68
2023/05/11 04:58:06;;;;;;;12.95;6.45;;;;;;;11.24;100.00;100846.13;4974845;28;20099;-68
2023/05/11 05:00:33;;;;;;;9.68;6.25;;;;;;;11.33;100.00;100855.88;4975208;28;20126;-68
2023/05/11 05:02:59;;;;;;;9.80;6.45;;;;;;;11.31;100.00;100847.16;5000760;28;20057;-69
2023/05/11 05:05:26;;;;;;;7.93;6.15;;;;;;;11.27;100.00;100851.13;5013817;28;20053;-69
2023/05/11 05:07:52;;;;;;;12.15;7.18;;;;;;;11.39;100.00;100857.09;5013385;28;20421;-69
2023/05/11 05:10:19;;;;;;;10.23;6.50;;;;;;;11.42;100.00;100854.91;5012794;28;20041;-69
2023/05/11 05:12:46;;;;;;;12.73;7.97;;;;;;;11.49;100.00;100854.25;5013224;28;20465;-69
2023/05/11 05:15:12;;;;;;;11.32;6.45;;;;;;;11.59;100.00;100852.28;5013170;28;20128;-69
2023/05/11 05:17:39;;;;;;;10.65;6.20;;;;;;;11.52;100.00;100854.78;5013581;28;20129;-70
2023/05/11 05:20:06;;;;;;;13.52;5.80;;;;;;;11.63;100.00;100850.94;5013661;28;20042;-69
2023/05/11 05:22:33;;;;;;;10.60;5.82;;;;;;;11.58;100.00;100853.25;5012996;28;20050;-69
2023/05/11 05:25:00;;;;;;;11.50;6.05;;;;;;;11.60;100.00;100856.66;5013662;28;20128;-69
2023/05/11 05:27:26;;;;;;;9.32;5.40;;;;;;;11.62;100.00;100854.63;5014783;28;20050;-69
2023/05/11 05:29:53;;;;;;;13.85;5.80;;;;;;;11.68;100.00;100865.59;5014230;28;20044;-69
2023/05/11 05:32:19;;;;;;;8.40;5.70;;;;;;;11.65;100.00;100859.66;5014348;28;20046;-69
2023/05/11 05:34:46;;;;;;;12.90;5.95;;;;;;;11.62;100.00;100858.16;5013310;28;20056;-69
2023/05/11 05:37:13;;;;;;;8.30;5.82;;;;;;;11.77;100.00;100863.78;5009685;28;20045;-69
2023/05/11 05:39:39;;;;;;;8.40;5.07;;;;;;;11.84;100.00;100864.78;5013635;28;20156;-70
2023/05/11 05:42:06;;;;;;;13.88;5.53;;;;;;;11.84;100.00;100863.97;5012485;28;20052;-69
2023/05/11 05:44:32;;;;;;;7.03;5.00;;;;;;;11.80;100.00;100873.38;4995938;28;20050;-69
2023/05/11 05:46:59;;;;;;;10.68;5.75;;;;;;;11.81;100.00;100873.19;5014007;28;20132;-68
2023/05/11 05:49:25;;;;;;;13.63;5.63;;;;;;;11.91;100.00;100871.19;5014044;28;20419;-70
2023/05/11 05:51:52;;;;;;;11.70;4.90;;;;;;;11.95;100.00;100876.25;5012577;28;20042;-68
2023/05/11 05:54:19;;;;;;;9.73;4.85;;;;;;;12.08;100.00;100888.19;5012807;28;20085;-68
2023/05/11 05:56:46;;;;;;;12.27;4.95;;;;;;;12.04;100.00;100886.00;5013556;28;20144;-68
2023/05/11 05:59:13;;;;;;;11.85;5.05;;;;;;;12.24;100.00;100889.22;5002221;28;20056;-69
2023/05/11 06:01:44;;;;;;;9.55;4.97;;;;;;;12.18;100.00;100890.72;4994333;28;20046;-70
2023/05/11 06:04:14;;;;;;;9.82;5.20;;;;;;;12.15;100.00;100888.38;5010882;28;20042;-68
2023/05/11 06:06:41;;;;;;;8.15;4.60;;;;;;;12.27;100.00;100899.63;5010865;28;20164;-68
2023/05/11 06:09:10;;;;;;;11.73;5.18;;;;;;;12.21;100.00;100892.22;5011004;28;20069;-71
2023/05/11 06:11:37;;;;;;;14.20;4.65;;;;;;;12.45;100.00;100896.78;5008472;28;20438;-69
2023/05/11 06:14:04;;;;;;;9.00;4.80;;;;;;;12.44;100.00;100893.25;5010684;28;20107;-69
2023/05/11 06:16:31;;;;;;;9.40;5.05;;;;;;;12.47;100.00;100886.69;5011060;28;20049;-69
2023/05/11 06:18:57;;;;;;;13.75;4.97;;;;;;;12.52;100.00;100892.41;5011892;28;20077;-69
2023/05/11 06:21:24;;;;;;;7.90;4.40;;;;;;;12.54;100.00;100901.16;5011963;28;20041;-69
2023/05/11 06:23:51;;;;;;;13.52;4.38;;;;;;;12.64;100.00;100901.84;5010456;28;20042;-68
2023/05/11 06:26:18;;;;;;;13.90;5.05;;;;;;;12.71;100.00;100902.84;5010598;28;20050;-68
2023/05/11 06:28:44;;;;;;;9.30;4.35;;;;;;;12.86;100.00;100893.06;4993338;28;20145;-70
2023/05/11 06:31:11;;;;;;;15.80;4.70;;;;;;;12.92;100.00;100901.50;5010521;28;20072;-70
2023/05/11 06:33:38;;;;;;;12.40;5.20;;;;;;;13.13;100.00;100893.69;5010904;28;20490;-69
2023/05/11 06:36:05;;;;;;;9.13;4.18;;;;;;;12.96;100.00;100905.53;5011574;28;20050;-69
2023/05/11 06:38:32;;;;;;;13.00;4.80;;;;;;;12.90;100.00;100895.44;4996913;28;20038;-69
2023/05/11 06:40:58;;;;;;;7.63;4.53;;;;;;;13.07;100.00;100897.06;4998239;28;20053;-70
2023/05/11 06:43:25;;;;;;;11.00;5.15;;;;;;;13.39;100.00;100900.66;5012266;28;20121;-69
2023/05/11 06:45:52;;;;;;;10.10;5.00;;;;;;;13.62;100.00;100898.88;5011088;28;20044;-70
2023/05/11 06:48:18;;;;;;;21.95;4.38;;;;;;;13.44;98.62;100903.69;5009562;28;20057;-69
2023/05/11 06:50:45;;;;;;;8.82;3.88;;;;;;;13.45;96.44;100897.28;5010653;28;20049;-69
2023/05/11 06:53:12;;;;;;;13.25;4.03;;;;;;;13.77;95.42;100899.03;5009418;28;20132;-69
2023/05/11 06:55:39;;;;;;;7.72;3.88;;;;;;;14.12;92.34;100897.63;5011651;28;20421;-72
2023/05/11 06:58:06;;;;;;;9.02;4.35;;;;;;;14.48;90.03;100900.53;5011957;28;20048;-70
2023/05/11 07:00:32;;;;;;;14.07;4.13;;;;;;;14.63;86.57;100894.34;5009768;28;20046;-72
2023/05/11 07:02:59;;;;;;;11.45;3.63;;;;;;;14.62;85.69;100896.22;4998837;28;20110;-71
2023/05/11 07:05:26;;;;;;;6.97;3.67;;;;;;;14.95;82.56;100885.13;4992058;28;20130;-71
2023/05/11 07:07:53;;;;;;;10.13;4.15;;;;;;;15.16;79.88;100892.50;4991217;28;20046;-71
2023/05/11 07:10:19;;;;;;;8.70;3.70;;;;;;;15.07;84.49;100880.94;4991585;28;20234;-71
2023/05/11 07:12:46;;;;;;;7.80;3.90;;;;;;;15.49;77.14;100888.34;4982766;28;20042;-71
2023/05/11 07:15:13;;;;;;;10.48;3.33;;;;;;;15.62;73.58;100893.09;4973942;28;20097;-71
2023/05/11 07:17:39;;;;;;;5.25;2.80;;;;;;;15.41;72.54;100895.75;4991024;28;20410;-69
2023/05/11 07:20:07;;;;;;;8.63;2.80;;;;;;;15.97;69.10;100890.63;4990229;28;20458;-72
2023/05/11 07:22:33;;;;;;;4.07;3.08;;;;;;;16.27;67.09;100893.22;4989162;28;20125;-70
2023/05/11 07:25:00;;;;;;;5.18;2.72;;;;;;;16.93;64.13;100888.38;4992105;28;20125;-70
2023/05/11 07:27:27;;;;;;;9.48;3.47;;;;;;;16.93;62.50;100888.38;4983098;28;20046;-70
2023/05/11 07:29:53;;;;;;;10.80;3.35;;;;;;;16.73;63.48;100895.53;4990942;28;20043;-73
2023/05/11 07:32:20;;;;;;;6.43;3.65;;;;;;;16.16;63.89;100887.28;4990549;28;20085;-72
2023/05/11 07:34:47;;;;;;;7.05;3.22;;;;;;;16.74;64.23;100887.19;4989356;28;20094;-72
2023/05/11 07:37:14;;;;;;;13.30;3.42;;;;;;;17.64;60.81;100893.56;4992771;28;20478;-74
2023/05/11 07:39:40;;;;;;;5.35;3.15;;;;;;;17.11;59.84;100890.56;4994705;28;20511;-74
2023/05/11 07:42:07;;;;;;;5.95;3.00;;;;;;;17.16;60.46;100889.97;4994973;28;20125;-73
2023/05/11 07:44:33;;;;;;;10.27;3.10;;;;;;;18.34;57.06;100890.63;4985248;28;20129;-73
2023/05/11 07:47:00;;;;;;;4.63;2.92;;;;;;;18.44;56.76;100888.34;4994087;28;20048;-74
2023/05/11 07:49:27;;;;;;;4.93;3.13;;;;;;;18.81;54.65;100881.44;4994825;28;20050;-74
2023/05/11 07:52:09;;;;;;;10.40;3.28;;;;;;;18.43;55.48;100886.69;4993626;28;20046;-74
2023/05/11 07:54:35;;;;;;;8.95;3.10;;;;;;;18.16;54.82;100885.81;4994784;28;20042;-72
2023/05/11 07:57:02;;;;;;;7.53;2.90;;;;;;;17.91;56.03;100886.34;4994945;28;20137;-73
2023/05/11 07:59:29;;;;;;;7.63;2.83;;;;;;;18.92;54.70;100880.81;4995101;28;20070;-71
2023/05/11 08:01:56;;;;;;;5.35;2.60;;;;;;;19.09;53.91;100875.78;4981545;28;20457;-71
2023/05/11 08:04:23;;;;;;;8.75;2.90;;;;;;;18.46;53.11;100878.13;5013228;28;20069;-70
2023/05/11 08:06:49;;;;;;;12.77;3.00;;;;;;;18.48;54.82;100882.31;5005329;28;20041;-71
2023/05/11 08:09:16;;;;;;;8.18;2.83;;;;;;;18.89;52.99;100885.81;5012885;28;20450;-69
2023/05/11 08:11:43;;;;;;;7.03;2.80;;;;;;;19.23;52.37;100885.56;5011560;28;20128;-71
2023/05/11 08:14:09;;;;;;;8.38;2.78;;;;;;;19.20;51.96;100885.16;5011780;28;20049;-74
2023/05/11 08:16:36;;;;;;;9.68;3.15;;;;;;;19.53;50.86;100885.06;5012194;28;20048;-72
2023/05/11 08:19:03;;;;;;;4.22;2.78;;;;;;;19.41;50.16;100876.72;5003185;28;20139;-71
2023/05/11 08:21:31;;;;;;;8.90;2.58;;;;;;;20.05;49.14;100885.03;5007416;28;20042;-70
2023/05/11 08:23:58;;;;;;;8.88;3.28;;;;;;;20.86;47.95;100874.13;5010571;28;20077;-71
2023/05/11 08:26:24;;;;;;;17.42;3.30;;;;;;;20.38;47.90;100874.72;5013122;28;20129;-72
2023/05/11 08:28:51;;;;;;;7.13;2.67;;;;;;;20.80;47.09;100880.50;5011185;28;20494;-70
2023/05/11 08:31:18;;;;;;;4.32;2.38;;;;;;;20.40;48.37;100878.09;5012515;28;20529;-71
2023/05/11 08:33:44;;;;;;;7.63;2.90;;;;;;;20.74;46.57;100881.38;5013052;28;20125;-70
2023/05/11 08:36:14;;;;;;;4.60;2.30;;;;;;;21.15;46.02;100879.97;5012335;28;20498;-72
2023/05/11 08:38:41;;;;;;;10.05;3.05;;;;;;;20.71;45.61;100868.19;5012603;28;20077;-72
2023/05/11 08:41:10;;;;;;;8.10;2.80;;;;;;;20.95;45.89;100862.94;5011823;28;20128;-71
2023/05/11 08:43:38;;;;;;;8.55;3.20;;;;;;;20.68;46.44;100869.47;5012511;28;20512;-70
2023/05/11 08:46:07;;;;;;;5.47;2.70;;;;;;;20.91;46.05;100876.19;5009663;28;20061;-72
2023/05/11 08:48:34;;;;;;;4.90;2.72;;;;;;;20.89;46.08;100873.69;4994278;28;20458;-70
2023/05/11 08:51:04;;;;;;;8.38;3.13;;;;;;;20.77;46.53;100867.31;4994538;28;20098;-71
2023/05/11 08:53:31;;;;;;;6.10;3.05;;;;;;;21.22;44.13;100869.81;4993886;28;20100;-70
2023/05/11 08:55:59;;;;;;;6.85;2.55;;;;;;;20.99;45.17;100862.25;4993560;28;20047;-69
2023/05/11 08:58:27;;;;;;;12.07;4.75;;;;;;;21.23;44.46;100871.47;4994051;28;20054;-70
2023/05/11 09:00:56;;;;;;;6.38;2.67;;;;;;;21.82;43.54;100861.72;4994198;28;20076;-71
2023/05/11 09:03:22;;;;;;;9.65;2.70;;;;;;;22.62;41.81;100868.69;5008813;28;20046;-71
2023/05/11 09:05:49;;;;;;;6.03;2.30;;;;;;;22.51;40.75;100866.78;5012029;28;20045;-69
2023/05/11 09:08:18;;;;;;;6.68;2.40;;;;;;;22.38;41.10;100864.25;5011827;28;20060;-70
2023/05/11 09:10:45;;;;;;;14.77;2.58;;;;;;;22.15;40.76;100863.13;5013159;28;20090;-71
2023/05/11 09:13:11;;;;;;;8.05;2.70;;;;;;;20.95;42.51;100857.50;5012539;28;20511;-70
2023/05/11 09:15:38;;;;;;;11.63;2.20;;;;;;;20.39;43.78;100865.50;5012409;28;20422;-70
2023/05/11 09:18:05;;;;;;;6.05;2.03;;;;;;;21.29;42.50;100861.53;5013854;28;20050;-71
2023/05/11 09:20:33;;;;;;;9.35;2.53;;;;;;;21.20;41.85;100874.66;4997140;28;20129;-72
2023/05/11 09:23:00;;;;;;;4.50;2.33;;;;;;;22.15;41.15;100867.75;4993510;28;20414;-72
2023/05/11 09:25:33;;;;;;;5.68;2.20;;;;;;;23.42;37.64;100861.72;4994133;28;20129;-73
2023/05/11 09:28:00;;;;;;;8.25;2.20;;;;;;;21.99;40.07;100858.34;4992488;28;20057;-70
2023/05/11 09:30:27;;;;;;;6.40;2.10;;;;;;;22.58;38.46;100867.50;4993530;28;20046;-72
2023/05/11 09:33:01;;;;;;;6.50;2.13;;;;;;;22.83;37.34;100869.16;4993123;28;20129;-71
2023/05/11 09:35:33;;;;;;;7.05;2.10;;;;;;;22.75;38.49;100856.69;4993628;28;20491;-71
2023/05/11 09:38:03;;;;;;;14.82;2.72;;;;;;;22.59;37.46;100852.75;4992699;28;20042;-72
2023/05/11 09:40:36;;;;;;;6.28;2.10;;;;;;;22.92;36.52;100871.31;4992984;28;20052;-72
2023/05/11 09:43:15;;;;;;;9.07;2.30;;;;;;;22.84;36.39;100860.72;5013328;28;20089;-72
2023/05/11 09:45:44;;;;;;;11.45;2.15;;;;;;;21.72;38.15;100855.94;5011996;28;20052;-72
2023/05/11 09:48:20;;;;;;;11.65;2.30;;;;;;;23.35;36.69;100861.03;5010974;28;20132;-72
2023/05/11 09:50:49;;;;;;;7.32;2.40;;;;;;;24.21;35.13;100865.44;5011051;28;20494;-72
2023/05/11 09:53:16;;;;;;;9.15;2.13;;;;;;;24.06;34.88;100856.97;5011666;28;20137;-72
2023/05/11 09:55:54;;;;;;;4.30;2.45;;;;;;;24.24;34.26;100863.31;5011464;28;20062;-71
2023/05/11 09:58:21;;;;;;;5.15;2.10;;;;;;;24.29;34.61;100846.94;4990756;28;20438;-73
2023/05/11 10:00:52;;;;;;;4.85;2.33;;;;;;;23.77;35.21;100847.09;5004814;28;20148;-73
2023/05/11 10:03:19;;;;;;;7.55;2.10;;;;;;;24.91;33.70;100844.06;4996461;28;20047;-72
2023/05/11 10:06:00;;;;;;;5.68;1.83;;;;;;;24.71;33.71;100836.38;4992207;28;20089;-72
2023/05/11 10:08:31;;;;;;;8.13;2.05;;;;;;;24.52;33.91;100844.06;4992964;28;20088;-72
2023/05/11 10:10:58;;;;;;;8.23;2.25;;;;;;;24.50;33.24;100843.47;4987566;28;20114;-73
2023/05/11 10:13:25;;;;;;;4.70;1.60;;;;;;;24.34;34.05;100847.03;4991147;28;20046;-73
2023/05/11 10:15:56;;;;;;;3.22;2.00;;;;;;;24.94;32.68;100851.81;4990920;28;20521;-71
2023/05/11 10:18:24;;;;;;;6.63;2.13;;;;;;;23.70;34.25;100837.09;4990506;28;20054;-73
2023/05/11 10:20:52;;;;;;;9.88;2.30;;;;;;;23.94;34.42;100839.75;4990751;28;20446;-72
2023/05/11 10:23:19;;;;;;;4.60;1.75;;;;;;;23.60;34.28;100834.16;4989317;28;20050;-70
2023/05/11 10:25:47;;;;;;;6.30;2.10;;;;;;;21.86;36.00;100842.97;4989335;28;20049;-70
2023/05/11 10:28:14;;;;;;;3.10;1.70;;;;;;;21.04;36.77;100843.34;4989961;28;20475;-70
2023/05/11 10:30:41;;;;;;;2.33;1.50;;;;;;;21.46;37.36;100842.63;4990608;28;20526;-70
2023/05/11 10:33:09;;;;;;;7.70;1.73;;;;;;;21.97;36.82;100838.59;4980803;28;20054;-71
2023/05/11 10:35:37;;;;;;;4.45;1.77;;;;;;;23.30;34.21;100834.41;4989363;28;20053;-68
2023/05/11 10:38:07;;;;;;;2.10;1.60;;;;;;;23.30;33.14;100823.44;4990688;28;20050;-69
2023/05/11 10:40:40;;;;;;;5.10;1.85;;;;;;;21.67;36.62;100822.19;4986899;28;20050;-72
2023/05/11 10:43:28;;;;;;;8.55;1.77;;;;;;;21.67;35.43;100833.97;4970171;28;20403;-71
2023/05/11 10:46:16;;;;;;;5.47;2.17;;;;;;;21.91;34.86;100831.31;4965256;28;20042;-70
2023/05/11 10:49:08;;;;;;;7.70;1.60;;;;;;;21.51;35.14;100829.97;4989979;28;20050;-71
2023/05/11 10:52:16;;;;;;;8.38;1.80;;;;;;;21.61;35.81;100830.25;4990688;28;20038;-71
2023/05/11 10:55:05;;;;;;;5.28;1.80;;;;;;;22.63;34.55;100820.28;4986414;28;20092;-69
2023/05/11 10:57:50;;;;;;;2.45;1.60;;;;;;;22.63;34.28;100826.59;4990278;28;20046;-71
2023/05/11 11:00:29;;;;;;;4.60;1.88;;;;;;;22.32;34.64;100820.41;4990154;28;20050;-70
2023/05/11 11:02:57;;;;;;;7.63;1.85;;;;;;;22.06;35.50;100823.53;5002097;28;20054;-70
2023/05/11 11:05:36;;;;;;;11.07;1.75;;;;;;;21.79;35.53;100820.34;5008993;28;20042;-70
2023/05/11 11:08:06;;;;;;;6.82;1.75;;;;;;;21.57;35.55;100830.97;5009752;28;20068;-69
2023/05/11 11:10:34;;;;;;;4.40;1.70;;;;;;;21.55;35.34;100824.88;5010949;28;20490;-70
2023/05/11 11:13:03;;;;;;;9.48;2.22;;;;;;;21.41;36.67;100834.31;5011001;28;20068;-69
2023/05/11 11:16:05;;;;;;;6.15;1.45;;;;;;;20.95;36.54;100831.03;5016298;28;20045;-69
2023/05/11 11:18:34;;;;;;;;;;;;;;;21.05;37.26;100825.91;4936564;29;20436;-70
2023/05/11 11:21:01;;;;;;;16.13;2.05;;;;;;;21.03;36.37;100827.19;4936018;29;20431;-69
2023/05/11 11:23:44;;;;;;;4.60;1.58;;;;;;;21.34;35.94;100829.75;4935787;29;20079;-69
2023/05/11 11:26:15;;;;;;;4.50;2.00;;;;;;;21.79;36.05;100825.81;4935381;29;20052;-72
2023/05/11 11:29:07;;;;;;;3.22;1.50;;;;;;;20.94;35.43;100823.06;4936417;29;20058;-72